createdAt,value
2017-10-27T00:01:50.246Z,83.90
2017-10-27T00:04:16.687Z,83.70
2017-10-27T00:06:43.178Z,83.80
2017-10-27T00:09:10.332Z,83.90
2017-10-27T00:11:37.504Z,83.60
2017-10-27T00:14:03.954Z,83.60
2017-10-27T00:16:30.386Z,83.60
2017-10-27T00:18:56.820Z,83.40
2017-10-27T00:21:23.296Z,83.40
2017-10-27T00:23:50.461Z,83.20
2017-10-27T00:26:16.906Z,83.00
2017-10-27T00:28:43.379Z,82.80
2017-10-27T00:31:09.817Z,82.80
2017-10-27T00:33:36.295Z,82.80
2017-10-27T00:36:03.472Z,82.70
2017-10-27T00:38:29.922Z,82.70
2017-10-27T00:40:56.412Z,82.80
2017-10-27T00:43:23.606Z,83.30
2017-10-27T00:45:50.067Z,83.30
2017-10-27T00:48:16.518Z,83.40
2017-10-27T00:50:43.043Z,83.50
2017-10-27T00:53:09.489Z,83.80
2017-10-27T00:55:36.692Z,83.90
2017-10-27T00:58:03.214Z,83.70
2017-10-27T01:00:29.713Z,83.50
2017-10-27T01:02:56.233Z,83.70
2017-10-27T01:05:22.746Z,84.30
2017-10-27T01:07:49.986Z,83.40
2017-10-27T01:10:16.485Z,83.40
2017-10-27T01:12:42.980Z,83.40
2017-10-27T01:15:10.181Z,83.40
2017-10-27T01:17:36.622Z,83.30
2017-10-27T01:20:03.161Z,83.50
2017-10-27T01:22:29.651Z,83.60
2017-10-27T01:24:56.137Z,83.90
2017-10-27T01:27:22.630Z,84.10
2017-10-27T01:29:49.226Z,85.20
2017-10-27T01:32:16.485Z,85.00
2017-10-27T01:34:43.721Z,85.40
2017-10-27T01:37:10.201Z,85.30
2017-10-27T01:39:36.728Z,85.50
2017-10-27T01:42:03.205Z,85.70
2017-10-27T01:44:29.720Z,86.00
2017-10-27T01:46:56.269Z,86.00
2017-10-27T01:49:22.841Z,86.40
2017-10-27T01:51:49.389Z,86.20
2017-10-27T01:54:16.693Z,86.90
2017-10-27T01:56:43.177Z,86.90
2017-10-27T01:59:09.681Z,87.20
2017-10-27T02:01:36.295Z,87.40
2017-10-27T02:04:02.840Z,87.60
2017-10-27T02:06:30.185Z,88.10
2017-10-27T02:08:56.657Z,88.10
2017-10-27T02:11:23.135Z,88.30
2017-10-27T02:13:49.630Z,88.30
2017-10-27T02:16:16.146Z,88.20
2017-10-27T02:18:42.654Z,88.50
2017-10-27T02:21:09.198Z,88.50
2017-10-27T02:23:35.709Z,88.60
2017-10-27T02:26:02.197Z,88.60
2017-10-27T02:28:29.430Z,89.20
2017-10-27T02:30:55.949Z,89.10
2017-10-27T02:33:22.429Z,89.50
2017-10-27T02:35:48.946Z,89.40
2017-10-27T02:38:16.204Z,89.20
2017-10-27T02:40:43.455Z,89.40
2017-10-27T02:43:10.653Z,90.10
2017-10-27T02:45:37.097Z,90.10
2017-10-27T02:48:03.594Z,89.60
2017-10-27T02:50:30.774Z,89.40
2017-10-27T02:52:57.286Z,89.50
2017-10-27T02:55:23.728Z,89.90
2017-10-27T02:57:50.189Z,89.70
2017-10-27T03:00:16.649Z,89.80
2017-10-27T03:02:43.882Z,89.60
2017-10-27T03:05:10.349Z,89.60
2017-10-27T03:07:37.591Z,90.00
2017-10-27T03:10:04.834Z,90.10
2017-10-27T03:12:31.306Z,90.10
2017-10-27T03:14:57.781Z,90.20
2017-10-27T03:17:24.213Z,90.20
2017-10-27T03:19:50.658Z,90.30
2017-10-27T03:22:17.894Z,91.00
2017-10-27T03:24:44.354Z,91.00
2017-10-27T03:27:10.777Z,91.30
2017-10-27T03:29:37.274Z,91.30
2017-10-27T03:32:03.729Z,91.30
2017-10-27T03:34:30.212Z,91.30
2017-10-27T03:36:56.947Z,91.30
2017-10-27T03:39:23.442Z,91.50
2017-10-27T03:41:50.718Z,92.00
2017-10-27T03:44:17.926Z,92.40
2017-10-27T03:46:44.431Z,92.30
2017-10-27T03:49:10.894Z,93.00
2017-10-27T03:51:37.410Z,93.00
2017-10-27T03:54:03.862Z,93.00
2017-10-27T03:56:30.306Z,93.30
2017-10-27T03:58:56.897Z,93.60
2017-10-27T04:01:23.385Z,93.80
2017-10-27T04:03:49.865Z,93.80
2017-10-27T04:06:16.324Z,94.10
2017-10-27T04:08:42.760Z,94.40
2017-10-27T04:11:09.213Z,94.30
2017-10-27T04:13:35.685Z,94.30
2017-10-27T04:16:02.184Z,94.80
2017-10-27T04:18:28.661Z,94.30
2017-10-27T04:20:55.102Z,94.40
2017-10-27T04:23:22.331Z,94.30
2017-10-27T04:25:49.602Z,94.30
2017-10-27T04:28:16.047Z,94.20
2017-10-27T04:30:42.603Z,94.40
2017-10-27T04:33:09.137Z,94.40
2017-10-27T04:35:35.593Z,94.40
2017-10-27T04:38:02.042Z,94.40
2017-10-27T04:40:29.297Z,94.30
2017-10-27T04:42:56.567Z,94.20
2017-10-27T04:45:23.025Z,94.20
2017-10-27T04:47:49.481Z,94.40
2017-10-27T04:50:15.921Z,94.40
2017-10-27T04:52:42.363Z,94.40
2017-10-27T04:55:08.803Z,94.50
2017-10-27T04:57:35.230Z,94.60
2017-10-27T05:00:01.678Z,94.50
2017-10-27T05:02:28.953Z,94.80
2017-10-27T05:04:56.090Z,94.80
2017-10-27T05:07:22.631Z,94.80
2017-10-27T05:09:49.274Z,94.90
2017-10-27T05:12:15.771Z,94.80
2017-10-27T05:14:42.237Z,94.40
2017-10-27T05:17:14.710Z,94.60
2017-10-27T05:19:47.955Z,94.60
2017-10-27T05:22:20.439Z,94.50
2017-10-27T05:24:46.905Z,94.30
2017-10-27T05:27:13.310Z,94.20
2017-10-27T05:29:39.752Z,94.20
2017-10-27T05:32:06.167Z,94.30
2017-10-27T05:34:33.406Z,94.40
2017-10-27T05:36:59.854Z,94.10
2017-10-27T05:39:26.305Z,94.10
2017-10-27T05:41:53.513Z,93.90
2017-10-27T05:44:19.974Z,93.90
2017-10-27T05:46:47.236Z,94.10
2017-10-27T05:49:13.722Z,94.00
2017-10-27T05:51:40.193Z,94.10
2017-10-27T05:54:06.629Z,94.00
2017-10-27T05:56:33.097Z,93.90
2017-10-27T05:59:00.251Z,93.30
2017-10-27T06:01:27.401Z,93.40
2017-10-27T06:03:54.566Z,93.10
2017-10-27T06:06:21.031Z,93.10
2017-10-27T06:08:47.505Z,92.60
2017-10-27T06:11:13.966Z,92.10
2017-10-27T06:13:40.378Z,91.50
2017-10-27T06:16:06.811Z,91.30
2017-10-27T06:30:25.766Z,90.90
2017-10-27T06:32:52.209Z,90.90
2017-10-27T06:35:18.610Z,91.30
2017-10-27T06:37:45.831Z,91.30
2017-10-27T06:40:12.248Z,91.30
2017-10-27T06:42:38.730Z,91.40
2017-10-27T06:45:05.193Z,91.30
2017-10-27T06:47:31.695Z,91.00
2017-10-27T06:49:58.191Z,90.80
2017-10-27T06:52:24.618Z,91.20
2017-10-27T06:54:51.101Z,91.60
2017-10-27T06:57:17.562Z,91.90
2017-10-27T06:59:44.022Z,92.00
2017-10-27T07:02:10.712Z,92.40
2017-10-27T07:04:37.182Z,92.70
2017-10-27T07:07:03.618Z,92.80
2017-10-27T07:09:30.167Z,93.00
2017-10-27T07:11:56.685Z,92.90
2017-10-27T07:14:23.142Z,93.30
2017-10-27T07:16:49.631Z,93.80
2017-10-27T07:19:16.063Z,93.90
2017-10-27T07:21:42.514Z,93.90
2017-10-27T07:24:09.027Z,94.20
2017-10-27T07:26:35.514Z,94.20
2017-10-27T07:29:01.990Z,94.40
2017-10-27T07:31:28.490Z,94.50
2017-10-27T07:33:55.013Z,94.70
2017-10-27T07:36:21.494Z,94.80
2017-10-27T07:38:48.008Z,94.80
2017-10-27T07:41:14.538Z,94.90
2017-10-27T07:43:41.801Z,95.70
2017-10-27T07:46:08.388Z,95.30
2017-10-27T07:48:35.634Z,95.10
2017-10-27T07:51:02.117Z,95.00
2017-10-27T07:53:29.358Z,95.00
2017-10-27T07:55:56.583Z,95.10
2017-10-27T07:58:23.174Z,95.10
2017-10-27T08:00:49.650Z,95.00
2017-10-27T08:03:16.196Z,94.70
2017-10-27T08:05:43.436Z,94.60
2017-10-27T08:08:10.649Z,94.90
2017-10-27T08:10:37.161Z,94.90
2017-10-27T08:13:03.668Z,94.80
2017-10-27T08:15:30.167Z,95.00
2017-10-27T08:17:56.688Z,95.20
2017-10-27T08:20:23.190Z,95.00
2017-10-27T08:22:49.695Z,95.20
2017-10-27T08:25:17.006Z,95.50
2017-10-27T08:27:43.522Z,95.50
2017-10-27T08:30:10.082Z,95.70
2017-10-27T08:32:36.564Z,95.90
2017-10-27T08:35:03.832Z,96.20
2017-10-27T08:37:30.365Z,96.20
2017-10-27T08:39:56.910Z,95.90
2017-10-27T08:42:26.162Z,95.80
2017-10-27T08:44:52.678Z,95.80
2017-10-27T08:47:19.238Z,95.70
2017-10-27T08:49:45.741Z,95.70
2017-10-27T08:52:12.245Z,95.70
2017-10-27T08:54:39.490Z,96.20
2017-10-27T08:57:05.980Z,96.20
2017-10-27T08:59:32.494Z,96.00
2017-10-27T09:01:58.992Z,95.90
2017-10-27T09:04:25.488Z,95.70
2017-10-27T09:06:51.965Z,95.70
2017-10-27T09:09:18.458Z,93.80
2017-10-27T09:11:44.962Z,93.10
2017-10-27T09:14:11.450Z,93.30
2017-10-27T09:16:37.946Z,93.20
2017-10-27T09:19:04.437Z,93.90
2017-10-27T09:21:31.905Z,93.50
2017-10-27T09:23:59.194Z,93.40
2017-10-27T09:26:25.782Z,93.70
2017-10-27T09:28:52.261Z,93.80
2017-10-27T09:31:18.769Z,93.70
2017-10-27T09:33:45.255Z,93.50
2017-10-27T09:36:12.522Z,93.80
2017-10-27T09:38:39.726Z,93.60
2017-10-27T09:41:06.266Z,93.50
2017-10-27T09:43:32.730Z,94.10
2017-10-27T09:45:59.986Z,93.50
2017-10-27T09:48:27.218Z,93.50
2017-10-27T09:50:54.502Z,93.60
2017-10-27T09:53:21.039Z,93.60
2017-10-27T09:55:47.553Z,93.70
2017-10-27T09:58:14.029Z,93.60
2017-10-27T10:00:40.579Z,93.50
2017-10-27T10:03:07.102Z,93.70
2017-10-27T10:05:33.615Z,93.60
2017-10-27T10:08:00.098Z,93.40
2017-10-27T10:10:26.609Z,93.70
2017-10-27T10:12:53.174Z,93.50
2017-10-27T10:15:19.658Z,93.80
2017-10-27T10:17:46.182Z,94.00
2017-10-27T10:20:12.695Z,94.00
2017-10-27T10:22:39.918Z,93.50
2017-10-27T10:25:06.569Z,93.50
2017-10-27T10:27:33.107Z,93.60
2017-10-27T10:29:59.629Z,92.40
2017-10-27T10:32:26.157Z,91.60
2017-10-27T10:34:52.712Z,91.80
2017-10-27T10:37:19.194Z,92.30
2017-10-27T10:39:46.433Z,91.40
2017-10-27T10:42:12.929Z,91.40
2017-10-27T10:44:39.431Z,91.50
2017-10-27T10:47:05.952Z,91.20
2017-10-27T10:49:32.457Z,90.90
2017-10-27T10:51:59.722Z,90.20
2017-10-27T10:54:26.214Z,90.10
2017-10-27T10:56:52.702Z,90.50
2017-10-27T10:59:19.901Z,89.30
2017-10-27T11:01:46.465Z,89.30
2017-10-27T11:04:13.700Z,88.10
2017-10-27T11:06:40.215Z,88.00
2017-10-27T11:09:06.721Z,89.00
2017-10-27T11:11:33.287Z,87.10
2017-10-27T11:13:59.802Z,87.90
2017-10-27T11:16:26.310Z,87.70
2017-10-27T11:18:52.848Z,87.80
2017-10-27T11:21:19.426Z,87.50
2017-10-27T11:23:45.959Z,88.10
2017-10-27T11:26:12.474Z,89.20
2017-10-27T11:28:39.055Z,88.80
2017-10-27T11:31:06.341Z,88.60
2017-10-27T11:33:32.821Z,88.60
2017-10-27T11:35:59.361Z,87.30
2017-10-27T11:38:25.854Z,86.60
2017-10-27T11:40:52.370Z,84.70
2017-10-27T11:43:18.853Z,85.20
2017-10-27T11:45:45.365Z,82.90
2017-10-27T11:48:11.805Z,81.20
2017-10-27T11:50:38.293Z,82.50
2017-10-27T11:53:04.774Z,81.90
2017-10-27T11:55:31.268Z,79.40
2017-10-27T11:57:58.444Z,79.30
2017-10-27T12:00:24.982Z,79.10
2017-10-27T12:02:51.462Z,78.80
2017-10-27T12:05:17.967Z,79.80
2017-10-27T12:07:44.485Z,80.10
2017-10-27T12:10:11.004Z,80.00
2017-10-27T12:12:37.614Z,80.60
2017-10-27T12:15:04.130Z,79.60
2017-10-27T12:17:30.645Z,80.00
2017-10-27T12:19:57.141Z,80.60
2017-10-27T12:22:23.635Z,77.80
2017-10-27T12:24:50.229Z,78.30
2017-10-27T12:27:16.818Z,77.80
2017-10-27T12:29:44.062Z,76.10
2017-10-27T12:32:10.545Z,76.00
2017-10-27T12:34:37.038Z,75.90
2017-10-27T12:37:04.278Z,77.10
2017-10-27T12:39:31.518Z,77.70
2017-10-27T12:41:58.033Z,77.60
2017-10-27T12:44:24.543Z,76.60
2017-10-27T12:46:51.090Z,77.50
2017-10-27T12:49:17.598Z,76.70
2017-10-27T12:51:44.097Z,75.80
2017-10-27T12:54:10.614Z,75.00
2017-10-27T12:56:37.074Z,75.80
2017-10-27T12:59:04.313Z,75.10
2017-10-27T13:01:30.805Z,75.10
2017-10-27T13:03:57.297Z,72.80
2017-10-27T13:06:23.848Z,73.10
2017-10-27T13:08:51.106Z,72.10
2017-10-27T13:11:18.319Z,73.50
2017-10-27T13:13:44.811Z,73.50
2017-10-27T13:16:11.311Z,74.40
2017-10-27T13:18:38.575Z,73.20
2017-10-27T13:21:05.839Z,73.60
2017-10-27T13:23:32.344Z,73.60
2017-10-27T13:25:59.576Z,73.90
2017-10-27T13:28:26.109Z,73.80
2017-10-27T13:30:52.598Z,73.00
2017-10-27T13:33:19.928Z,72.20
2017-10-27T13:35:47.173Z,72.60
2017-10-27T13:38:14.440Z,72.10
2017-10-27T13:40:40.977Z,72.10
2017-10-27T13:43:07.503Z,72.60
2017-10-27T13:45:33.973Z,71.10
2017-10-27T13:48:00.585Z,72.60
2017-10-27T13:50:27.891Z,72.80
2017-10-27T13:52:54.378Z,72.70
2017-10-27T13:55:20.962Z,73.30
2017-10-27T13:57:47.466Z,75.10
2017-10-27T14:00:13.985Z,77.00
2017-10-27T14:02:40.515Z,79.70
2017-10-27T14:05:06.989Z,80.70
2017-10-27T14:07:33.506Z,80.70
2017-10-27T14:10:00.020Z,80.70
2017-10-27T14:12:26.526Z,80.40
2017-10-27T14:14:53.799Z,79.60
2017-10-27T14:17:20.998Z,79.50
2017-10-27T14:19:47.462Z,79.50
2017-10-27T14:22:13.990Z,79.30
2017-10-27T14:24:41.221Z,79.10
2017-10-27T14:27:07.708Z,79.10
2017-10-27T14:29:34.909Z,80.00
2017-10-27T14:32:01.362Z,79.90
2017-10-27T14:34:27.866Z,79.80
2017-10-27T14:36:54.377Z,79.90
2017-10-27T14:39:20.919Z,79.80
2017-10-27T14:41:47.385Z,80.10
2017-10-27T14:44:13.865Z,79.70
2017-10-27T14:46:41.064Z,80.90
2017-10-27T14:49:07.817Z,80.90
2017-10-27T14:51:35.075Z,80.70
2017-10-27T14:54:01.587Z,80.70
2017-10-27T14:56:28.112Z,81.30
2017-10-27T14:58:54.632Z,81.40
2017-10-27T15:01:21.097Z,81.30
2017-10-27T15:03:48.358Z,81.70
2017-10-27T15:06:14.842Z,81.70
2017-10-27T15:08:41.327Z,81.90
2017-10-27T15:11:07.771Z,82.20
2017-10-27T15:13:35.039Z,83.10
2017-10-27T15:16:02.242Z,82.60
2017-10-27T15:18:28.742Z,82.70
2017-10-27T15:20:55.321Z,79.90
2017-10-27T15:23:21.788Z,80.60
2017-10-27T15:25:48.467Z,81.50
2017-10-27T15:28:14.988Z,81.80
2017-10-27T15:30:42.201Z,80.80
2017-10-27T15:33:08.730Z,80.80
2017-10-27T15:35:35.218Z,80.10
2017-10-27T15:38:01.720Z,80.50
2017-10-27T15:40:28.903Z,81.20
2017-10-27T15:42:56.158Z,81.80
2017-10-27T15:45:22.643Z,82.70
2017-10-27T15:47:49.082Z,83.30
2017-10-27T15:50:15.548Z,83.30
2017-10-27T15:52:42.045Z,83.80
2017-10-27T15:55:09.286Z,84.40
2017-10-27T15:57:36.487Z,84.70
2017-10-27T16:00:03.005Z,84.60
2017-10-27T16:02:29.484Z,85.60
2017-10-27T16:04:55.926Z,85.90
2017-10-27T16:07:22.383Z,86.70
2017-10-27T16:09:49.588Z,87.50
2017-10-27T16:12:16.045Z,87.50
2017-10-27T16:14:42.495Z,88.20
2017-10-27T16:17:09.027Z,88.10
2017-10-27T16:19:35.486Z,88.70
2017-10-27T16:22:02.033Z,89.00
2017-10-27T16:24:28.499Z,89.40
2017-10-27T16:26:54.965Z,89.50
2017-10-27T16:29:21.417Z,89.20
2017-10-27T16:31:48.595Z,89.50
2017-10-27T16:34:15.030Z,89.50
2017-10-27T16:36:41.482Z,89.10
2017-10-27T16:39:07.965Z,88.90
2017-10-27T16:41:34.380Z,89.40
2017-10-27T16:44:01.597Z,89.30
2017-10-27T16:46:28.099Z,89.30
2017-10-27T16:48:54.562Z,89.70
2017-10-27T16:51:21.015Z,90.20
2017-10-27T16:53:47.463Z,90.20
2017-10-27T16:56:13.906Z,90.20
2017-10-27T16:58:41.135Z,90.20
2017-10-27T17:01:07.602Z,90.20
2017-10-27T17:03:34.134Z,90.20
2017-10-27T17:06:00.601Z,90.20
2017-10-27T17:08:27.093Z,90.30
2017-10-27T17:10:53.561Z,90.40
2017-10-27T17:13:20.005Z,90.50
2017-10-27T17:15:46.458Z,90.60
2017-10-27T17:18:12.929Z,90.50
2017-10-27T17:20:39.435Z,90.60
2017-10-27T17:23:05.920Z,90.90
2017-10-27T17:25:32.501Z,91.10
2017-10-27T17:27:59.766Z,91.00
2017-10-27T17:30:27.041Z,90.90
2017-10-27T17:32:53.562Z,90.90
2017-10-27T17:35:20.029Z,91.00
2017-10-27T17:37:46.525Z,91.30
2017-10-27T17:40:13.760Z,91.10
2017-10-27T17:42:40.237Z,91.10
2017-10-27T17:45:06.734Z,91.20
2017-10-27T17:47:33.978Z,91.50
2017-10-27T17:50:01.191Z,91.70
2017-10-27T17:52:27.665Z,91.70
2017-10-27T17:54:54.205Z,91.90
2017-10-27T17:57:20.714Z,91.80
2017-10-27T17:59:47.218Z,91.70
2017-10-27T18:02:13.741Z,91.70
2017-10-27T18:04:40.291Z,91.60
2017-10-27T18:07:06.802Z,91.60
2017-10-27T18:09:33.294Z,91.50
2017-10-27T18:11:59.836Z,91.60
2017-10-27T18:14:27.087Z,91.60
2017-10-27T18:16:53.605Z,91.60
2017-10-27T18:19:20.887Z,91.60
2017-10-27T18:21:48.194Z,91.60
2017-10-27T18:24:14.663Z,91.60
2017-10-27T18:26:41.931Z,91.30
2017-10-27T18:29:08.410Z,91.30
2017-10-27T18:31:35.008Z,91.50
2017-10-27T18:34:01.606Z,92.00
2017-10-27T18:36:28.152Z,92.50
2017-10-27T18:38:54.762Z,92.40
2017-10-27T18:41:21.229Z,92.70
2017-10-27T18:43:47.793Z,92.60
2017-10-27T18:46:14.411Z,92.70
2017-10-27T18:48:41.599Z,92.80
2017-10-27T18:51:08.053Z,93.20
2017-10-27T18:53:34.604Z,92.70
2017-10-27T18:56:01.066Z,92.60
2017-10-27T18:58:28.330Z,92.30
2017-10-27T19:00:54.839Z,92.30
2017-10-27T19:03:21.282Z,92.30
2017-10-27T19:05:47.737Z,92.40
2017-10-27T19:08:14.245Z,92.80
2017-10-27T19:10:40.763Z,92.20
2017-10-27T19:13:07.269Z,92.30
2017-10-27T19:15:33.725Z,92.00
2017-10-27T19:18:00.181Z,92.20
2017-10-27T19:20:26.601Z,92.00
2017-10-27T19:22:53.098Z,93.10
2017-10-27T19:25:19.554Z,92.20
2017-10-27T19:27:46.007Z,91.50
2017-10-27T19:30:12.497Z,91.50
2017-10-27T19:32:39.008Z,91.70
2017-10-27T19:35:05.445Z,91.90
2017-10-27T19:37:31.927Z,91.90
2017-10-27T19:39:58.390Z,91.60
2017-10-27T19:42:25.685Z,91.60
2017-10-27T19:44:52.165Z,91.50
2017-10-27T19:47:18.627Z,91.60
2017-10-27T19:49:45.065Z,91.90
2017-10-27T19:52:11.504Z,92.40
2017-10-27T19:54:38.676Z,93.20
2017-10-27T19:57:05.108Z,93.20
2017-10-27T19:59:31.533Z,93.60
2017-10-27T20:01:58.005Z,93.80
2017-10-27T20:04:24.473Z,93.80
2017-10-27T20:06:51.670Z,93.40
2017-10-27T20:09:18.194Z,93.40
2017-10-27T20:11:44.675Z,93.30
2017-10-27T20:14:11.186Z,92.30
2017-10-27T20:16:37.637Z,92.20
2017-10-27T20:19:04.917Z,93.90
2017-10-27T20:21:31.392Z,93.80
2017-10-27T20:23:57.879Z,94.00
2017-10-27T20:26:24.368Z,93.80
2017-10-27T20:28:50.875Z,93.70
2017-10-27T20:31:17.377Z,94.30
2017-10-27T20:33:43.843Z,94.70
2017-10-27T20:36:10.308Z,94.40
2017-10-27T20:38:36.753Z,94.50
2017-10-27T20:41:03.210Z,94.80
2017-10-27T20:43:29.650Z,94.40
2017-10-27T20:45:56.858Z,93.60
2017-10-27T20:48:23.286Z,93.60
2017-10-27T20:50:49.736Z,93.40
2017-10-27T20:53:16.196Z,92.90
2017-10-27T20:55:42.616Z,93.30
2017-10-27T20:58:09.062Z,93.60
2017-10-27T21:00:35.471Z,93.50
2017-10-27T21:03:02.656Z,93.40
2017-10-27T21:05:29.121Z,93.30
2017-10-27T21:07:55.582Z,92.90
2017-10-27T21:10:22.017Z,92.80
2017-10-27T21:12:49.239Z,92.80
2017-10-27T21:15:15.709Z,92.80
2017-10-27T21:17:42.166Z,92.40
2017-10-27T21:20:09.328Z,92.00
2017-10-27T21:22:35.830Z,92.00
2017-10-27T21:25:03.849Z,92.30
2017-10-27T21:27:30.311Z,92.30
2017-10-27T21:29:56.806Z,92.20
2017-10-27T21:32:23.247Z,92.60
2017-10-27T21:34:49.752Z,93.50
2017-10-27T21:37:16.220Z,93.80
2017-10-27T21:39:42.752Z,95.10
2017-10-27T21:42:09.254Z,95.30
2017-10-27T21:44:36.495Z,95.10
2017-10-27T21:47:03.021Z,95.00
2017-10-27T21:49:29.469Z,95.40
2017-10-27T21:51:56.682Z,95.00
2017-10-27T21:54:23.184Z,95.00
2017-10-27T21:56:49.660Z,95.60
2017-10-27T21:59:16.121Z,95.80
2017-10-27T22:01:43.394Z,95.80
2017-10-27T22:04:10.046Z,95.80
2017-10-27T22:06:36.535Z,96.00
2017-10-27T22:09:03.004Z,96.20
2017-10-27T22:11:29.569Z,96.10
2017-10-27T22:13:56.054Z,96.10
2017-10-27T22:16:23.248Z,96.20
2017-10-27T22:18:49.812Z,95.90
2017-10-27T22:21:16.307Z,95.60
2017-10-27T22:23:42.755Z,95.00
2017-10-27T22:26:09.205Z,94.80
2017-10-27T22:28:35.642Z,94.80
2017-10-27T22:31:02.862Z,95.20
2017-10-27T22:33:29.333Z,95.20
2017-10-27T22:35:56.604Z,95.70
2017-10-27T22:38:23.758Z,95.40
2017-10-27T22:41:03.020Z,95.50
2017-10-27T22:43:29.461Z,95.50
2017-10-27T22:45:55.918Z,95.50
2017-10-27T22:48:23.104Z,95.40
2017-10-27T22:50:50.327Z,95.20
2017-10-27T22:53:16.949Z,95.20
2017-10-27T22:55:43.388Z,94.70
2017-10-27T22:58:09.893Z,94.00
2017-10-27T23:00:36.307Z,93.90
2017-10-27T23:03:02.789Z,93.70
2017-10-27T23:05:29.234Z,93.70
2017-10-27T23:08:01.922Z,93.80
2017-10-27T23:10:28.379Z,93.60
2017-10-27T23:12:55.586Z,92.90
2017-10-27T23:15:22.034Z,92.90
2017-10-27T23:17:48.453Z,92.80
2017-10-27T23:20:14.886Z,93.10
2017-10-27T23:22:41.381Z,93.80
2017-10-27T23:25:07.848Z,94.20
2017-10-27T23:27:34.304Z,94.90
2017-10-27T23:30:00.745Z,94.80
2017-10-27T23:32:27.928Z,95.00
2017-10-27T23:34:54.333Z,95.00
2017-10-27T23:37:21.531Z,95.10
2017-10-27T23:39:47.997Z,95.10
2017-10-27T23:42:14.547Z,94.80
2017-10-27T23:44:41.081Z,94.80
2017-10-27T23:47:07.489Z,94.80
2017-10-27T23:49:33.906Z,94.60
2017-10-27T23:52:00.342Z,94.70
2017-10-27T23:54:26.786Z,94.50
2017-10-27T23:56:53.214Z,94.30
2017-10-27T23:59:19.703Z,93.80
